Time,TemperatureF,DewpointF,PressureIn,WindDirection,WindDirectionDegrees,WindSpeedMPH,WindSpeedGustMPH,Humidity,HourlyPrecipIn,Conditions,Clouds,dailyrainin,SoftwareType,DateUTC
2013-09-07 00:13:00,60.2,54.0,30.03,West,260,1.0,4.0,80,0.00,,,0.00,weatherlink.com 1.10,2013-09-07 04:13:00,
2013-09-07 00:27:00,59.9,54.0,30.02,SW,219,0.0,5.0,81,0.00,,,0.00,weatherlink.com 1.10,2013-09-07 04:27:00,
2013-09-07 00:42:00,59.8,54.0,30.03,SSE,160,2.0,5.0,82,0.00,,,0.00,weatherlink.com 1.10,2013-09-07 04:42:00,
2013-09-07 00:57:00,59.7,54.0,30.03,SE,141,2.0,5.0,82,0.00,,,0.00,weatherlink.com 1.10,2013-09-07 04:57:00,
2013-09-07 01:12:00,59.6,54.0,30.02,WSW,256,1.0,5.0,83,0.00,,,0.00,weatherlink.com 1.10,2013-09-07 05:12:00,
2013-09-07 01:27:00,59.6,54.0,30.02,SSW,198,2.0,5.0,83,0.00,,,0.00,weatherlink.com 1.10,2013-09-07 05:27:00,
2013-09-07 01:42:00,59.6,54.0,30.02,ESE,105,0.0,6.0,83,0.00,,,0.00,weatherlink.com 1.10,2013-09-07 05:42:00,
2013-09-07 01:57:00,59.5,54.0,30.02,South,188,2.0,6.0,82,0.00,,,0.00,weatherlink.com 1.10,2013-09-07 05:57:00,
2013-09-07 02:12:00,60.0,53.0,30.01,WSW,246,1.0,7.0,79,0.00,,,0.00,weatherlink.com 1.10,2013-09-07 06:12:00,
2013-09-07 02:27:00,60.2,53.0,30.00,South,172,1.0,6.0,77,0.00,,,0.00,weatherlink.com 1.10,2013-09-07 06:27:00,
2013-09-07 02:42:00,60.7,53.0,30.00,SSW,194,2.0,6.0,75,0.00,,,0.00,weatherlink.com 1.10,2013-09-07 06:42:00,
2013-09-07 02:57:00,60.6,53.0,30.00,WSW,250,1.0,8.0,75,0.00,,,0.00,weatherlink.com 1.10,2013-09-07 06:57:00,
2013-09-07 03:12:00,60.6,52.0,29.99,SSE,163,3.0,7.0,74,0.00,,,0.00,weatherlink.com 1.10,2013-09-07 07:12:00,
2013-09-07 03:27:00,60.5,53.0,29.99,SW,224,0.0,5.0,75,0.00,,,0.00,weatherlink.com 1.10,2013-09-07 07:27:00,
2013-09-07 03:42:00,60.9,53.0,29.99,South,186,3.0,8.0,74,0.00,,,0.00,weatherlink.com 1.10,2013-09-07 07:42:00,
2013-09-07 03:57:00,61.0,52.0,29.99,SW,236,3.0,7.0,73,0.00,,,0.00,weatherlink.com 1.10,2013-09-07 07:57:00,
2013-09-07 04:12:00,61.0,52.0,29.98,SW,217,0.0,7.0,73,0.00,,,0.00,weatherlink.com 1.10,2013-09-07 08:12:00,
2013-09-07 04:27:00,60.8,52.0,29.98,South,176,2.0,5.0,73,0.00,,,0.00,weatherlink.com 1.10,2013-09-07 08:27:00,
2013-09-07 04:43:00,60.9,52.0,29.98,SSW,211,5.0,5.0,73,0.00,,,0.00,weatherlink.com 1.10,2013-09-07 08:43:00,
2013-09-07 04:58:00,60.9,52.0,29.98,SSW,203,1.0,7.0,72,0.00,,,0.00,weatherlink.com 1.10,2013-09-07 08:58:00,
2013-09-07 05:14:00,60.9,52.0,29.97,South,188,3.0,5.0,73,0.00,,,0.00,weatherlink.com 1.10,2013-09-07 09:14:00,
2013-09-07 05:28:00,60.9,52.0,29.97,SSW,195,4.0,5.0,73,0.00,,,0.00,weatherlink.com 1.10,2013-09-07 09:28:00,
2013-09-07 05:43:00,61.3,53.0,29.96,SSW,203,2.0,5.0,73,0.00,,,0.00,weatherlink.com 1.10,2013-09-07 09:43:00,
2013-09-07 05:58:00,61.6,52.0,29.96,SSE,162,4.0,5.0,72,0.00,,,0.00,weatherlink.com 1.10,2013-09-07 09:58:00,
2013-09-07 06:13:00,61.6,53.0,29.96,WSW,252,2.0,7.0,73,0.00,,,0.00,weatherlink.com 1.10,2013-09-07 10:13:00,
2013-09-07 06:28:00,62.0,53.0,29.96,WSW,240,4.0,6.0,73,0.00,,,0.00,weatherlink.com 1.10,2013-09-07 10:28:00,
2013-09-07 06:43:00,63.0,53.0,29.95,SW,218,6.0,10.0,71,0.00,,,0.00,weatherlink.com 1.10,2013-09-07 10:43:00,
2013-09-07 06:58:00,63.3,53.0,29.95,SW,224,4.0,10.0,70,0.00,,,0.00,weatherlink.com 1.10,2013-09-07 10:58:00,
2013-09-07 07:13:00,62.9,53.0,29.96,SW,231,5.0,8.0,71,0.00,,,0.00,weatherlink.com 1.10,2013-09-07 11:13:00,
2013-09-07 07:28:00,62.7,54.0,29.95,WSW,246,2.0,7.0,72,0.00,,,0.00,weatherlink.com 1.10,2013-09-07 11:28:00,
2013-09-07 07:43:00,62.8,54.0,29.95,SW,214,3.0,6.0,73,0.00,,,0.00,weatherlink.com 1.10,2013-09-07 11:43:00,
2013-09-07 07:58:00,63.2,55.0,29.95,WSW,248,2.0,6.0,74,0.00,,,0.00,weatherlink.com 1.10,2013-09-07 11:58:00,
2013-09-07 08:13:00,63.9,55.0,29.95,SW,232,2.0,6.0,73,0.00,,,0.00,weatherlink.com 1.10,2013-09-07 12:13:00,
2013-09-07 08:28:00,64.3,56.0,29.95,WNW,282,2.0,7.0,74,0.00,,,0.00,weatherlink.com 1.10,2013-09-07 12:28:00,
2013-09-07 08:43:00,64.9,56.0,29.95,SW,228,3.0,5.0,74,0.00,,,0.00,weatherlink.com 1.10,2013-09-07 12:43:00,
2013-09-07 08:58:00,66.0,58.0,29.94,West,267,1.0,7.0,74,0.00,,,0.00,weatherlink.com 1.10,2013-09-07 12:58:00,
2013-09-07 09:13:00,66.5,58.0,29.94,SW,232,2.0,6.0,75,0.00,,,0.00,weatherlink.com 1.10,2013-09-07 13:13:00,
2013-09-07 09:28:00,67.3,60.0,29.94,WSW,246,7.0,7.0,76,0.00,,,0.00,weatherlink.com 1.10,2013-09-07 13:28:00,
2013-09-07 09:43:00,67.4,60.0,29.94,West,281,0.0,5.0,78,0.00,,,0.00,weatherlink.com 1.10,2013-09-07 13:43:00,
2013-09-07 09:58:00,67.3,61.0,29.93,South,179,2.0,4.0,79,0.00,,,0.00,weatherlink.com 1.10,2013-09-07 13:58:00,
2013-09-07 10:13:00,67.7,61.0,29.94,WNW,290,1.0,3.0,79,0.00,,,0.00,weatherlink.com 1.10,2013-09-07 14:13:00,
2013-09-07 10:28:00,70.0,63.0,29.93,South,179,4.0,8.0,77,0.00,,,0.00,weatherlink.com 1.10,2013-09-07 14:28:00,
2013-09-07 10:43:00,73.0,64.0,29.94,SW,222,5.0,9.0,74,0.00,,,0.00,weatherlink.com 1.10,2013-09-07 14:43:00,
2013-09-07 10:59:00,74.4,65.0,29.94,West,271,1.0,10.0,73,0.00,,,0.00,weatherlink.com 1.10,2013-09-07 14:59:00,
2013-09-07 11:14:00,74.8,66.0,29.93,WSW,249,1.0,7.0,73,0.00,,,0.00,weatherlink.com 1.10,2013-09-07 15:14:00,
2013-09-07 11:29:00,75.4,66.0,29.93,South,188,2.0,11.0,72,0.00,,,0.00,weatherlink.com 1.10,2013-09-07 15:29:00,
2013-09-07 11:44:00,75.3,65.0,29.92,South,190,2.0,9.0,71,0.00,,,0.00,weatherlink.com 1.10,2013-09-07 15:44:00,
2013-09-07 11:59:00,72.4,66.0,29.93,WNW,294,0.0,5.0,81,0.02,,,0.02,weatherlink.com 1.10,2013-09-07 15:59:00,
2013-09-07 12:14:00,70.5,67.0,29.93,SW,236,0.0,2.0,87,0.05,,,0.05,weatherlink.com 1.10,2013-09-07 16:14:00,
2013-09-07 12:29:00,69.8,67.0,29.92,WSW,246,0.0,0.0,90,0.08,,,0.08,weatherlink.com 1.10,2013-09-07 16:29:00,
2013-09-07 12:44:00,69.7,67.0,29.91,SSE,158,1.0,2.0,92,0.08,,,0.08,weatherlink.com 1.10,2013-09-07 16:44:00,
2013-09-07 12:59:00,69.6,67.0,29.91,SSE,160,0.0,2.0,91,0.06,,,0.08,weatherlink.com 1.10,2013-09-07 16:59:00,
2013-09-07 13:14:00,69.8,67.0,29.91,SW,226,0.0,1.0,92,0.02,,,0.08,weatherlink.com 1.10,2013-09-07 17:14:00,
2013-09-07 13:29:00,70.8,68.0,29.91,West,280,1.0,2.0,92,0.00,,,0.08,weatherlink.com 1.10,2013-09-07 17:29:00,
2013-09-07 13:44:00,71.7,68.0,29.91,SSW,204,5.0,7.0,88,0.00,,,0.08,weatherlink.com 1.10,2013-09-07 17:44:00,
2013-09-07 13:59:00,72.1,68.0,29.91,West,272,0.0,4.0,88,0.00,,,0.08,weatherlink.com 1.10,2013-09-07 17:59:00,
2013-09-07 14:14:00,72.6,69.0,29.90,SSE,160,4.0,6.0,87,0.00,,,0.08,weatherlink.com 1.10,2013-09-07 18:14:00,
2013-09-07 14:29:00,73.0,68.0,29.90,SSE,150,5.0,5.0,85,0.00,,,0.08,weatherlink.com 1.10,2013-09-07 18:29:00,
2013-09-07 14:44:00,73.2,68.0,29.89,SE,135,2.0,6.0,84,0.00,,,0.08,weatherlink.com 1.10,2013-09-07 18:44:00,
2013-09-07 14:59:00,73.0,69.0,29.89,SSW,210,2.0,4.0,86,0.00,,,0.08,weatherlink.com 1.10,2013-09-07 18:59:00,
2013-09-07 15:14:00,74.2,70.0,29.88,SW,214,4.0,6.0,85,0.00,,,0.08,weatherlink.com 1.10,2013-09-07 19:14:00,
2013-09-07 15:29:00,75.5,70.0,29.87,SSW,194,4.0,9.0,82,0.00,,,0.08,weatherlink.com 1.10,2013-09-07 19:29:00,
2013-09-07 15:44:00,76.3,70.0,29.87,SW,219,6.0,10.0,80,0.00,,,0.08,weatherlink.com 1.10,2013-09-07 19:44:00,
2013-09-07 15:59:00,76.4,69.0,29.86,SSE,163,7.0,11.0,78,0.00,,,0.08,weatherlink.com 1.10,2013-09-07 19:59:00,
2013-09-07 16:14:00,76.0,69.0,29.86,WSW,250,7.0,13.0,78,0.00,,,0.08,weatherlink.com 1.10,2013-09-07 20:14:00,
2013-09-07 16:29:00,75.8,69.0,29.86,WSW,250,6.0,11.0,78,0.00,,,0.08,weatherlink.com 1.10,2013-09-07 20:29:00,
2013-09-07 16:44:00,75.6,68.0,29.88,WNW,300,2.0,6.0,78,0.00,,,0.08,weatherlink.com 1.10,2013-09-07 20:44:00,
2013-09-07 16:59:00,75.1,68.0,29.87,WSW,249,1.0,3.0,79,0.00,,,0.08,weatherlink.com 1.10,2013-09-07 20:59:00,
2013-09-07 17:14:00,74.3,69.0,29.86,SSW,192,1.0,3.0,84,0.01,,,0.09,weatherlink.com 1.10,2013-09-07 21:14:00,
2013-09-07 17:29:00,73.3,70.0,29.87,WNW,284,1.0,2.0,88,0.01,,,0.09,weatherlink.com 1.10,2013-09-07 21:29:00,
2013-09-07 17:44:00,72.8,70.0,29.87,West,269,0.0,1.0,90,0.01,,,0.09,weatherlink.com 1.10,2013-09-07 21:44:00,
2013-09-07 17:59:00,72.4,70.0,29.86,WSW,240,1.0,5.0,91,0.01,,,0.09,weatherlink.com 1.10,2013-09-07 21:59:00,
2013-09-07 18:14:00,72.5,70.0,29.86,WSW,243,5.0,6.0,91,0.00,,,0.09,weatherlink.com 1.10,2013-09-07 22:14:00,
2013-09-07 18:29:00,73.3,70.0,29.85,SW,219,1.0,7.0,89,0.00,,,0.09,weatherlink.com 1.10,2013-09-07 22:29:00,
2013-09-07 18:44:00,73.1,69.0,29.85,SW,216,1.0,9.0,88,0.00,,,0.09,weatherlink.com 1.10,2013-09-07 22:44:00,
2013-09-07 18:59:00,72.8,69.0,29.85,WSW,245,1.0,6.0,88,0.00,,,0.09,weatherlink.com 1.10,2013-09-07 22:59:00,
2013-09-07 19:14:00,72.4,69.0,29.85,SSW,204,1.0,5.0,88,0.00,,,0.09,weatherlink.com 1.10,2013-09-07 23:14:00,
2013-09-07 19:29:00,71.8,69.0,29.85,SW,217,2.0,3.0,89,0.00,,,0.09,weatherlink.com 1.10,2013-09-07 23:29:00,
2013-09-07 19:44:00,71.4,68.0,29.85,SE,132,0.0,0.0,90,0.01,,,0.10,weatherlink.com 1.10,2013-09-07 23:44:00,
2013-09-07 19:59:00,70.9,68.0,29.86,South,169,0.0,0.0,91,0.02,,,0.11,weatherlink.com 1.10,2013-09-07 23:59:00,
2013-09-07 20:14:00,70.3,68.0,29.86,South,169,0.0,0.0,93,0.02,,,0.11,weatherlink.com 1.10,2013-09-08 00:14:00,
2013-09-07 20:29:00,69.6,68.0,29.86,South,169,0.0,0.0,94,0.02,,,0.11,weatherlink.com 1.10,2013-09-08 00:29:00,
2013-09-07 20:44:00,69.2,68.0,29.86,SW,222,0.0,0.0,95,0.01,,,0.11,weatherlink.com 1.10,2013-09-08 00:44:00,
2013-09-07 20:59:00,69.5,68.0,29.86,WSW,249,4.0,4.0,95,0.00,,,0.11,weatherlink.com 1.10,2013-09-08 00:59:00,
2013-09-07 21:14:00,70.0,68.0,29.87,WSW,250,1.0,4.0,94,0.00,,,0.11,weatherlink.com 1.10,2013-09-08 01:14:00,
2013-09-07 21:29:00,70.0,68.0,29.87,WSW,246,1.0,4.0,93,0.00,,,0.11,weatherlink.com 1.10,2013-09-08 01:29:00,
2013-09-07 21:44:00,69.8,68.0,29.87,West,261,0.0,4.0,93,0.00,,,0.11,weatherlink.com 1.10,2013-09-08 01:44:00,
2013-09-07 21:59:00,69.4,67.0,29.88,WSW,240,0.0,1.0,93,0.00,,,0.11,weatherlink.com 1.10,2013-09-08 01:59:00,
2013-09-07 22:14:00,69.1,67.0,29.87,WSW,253,2.0,3.0,93,0.00,,,0.11,weatherlink.com 1.10,2013-09-08 02:14:00,
2013-09-07 22:29:00,69.0,67.0,29.88,WNW,288,2.0,2.0,93,0.00,,,0.11,weatherlink.com 1.10,2013-09-08 02:29:00,
2013-09-07 22:44:00,69.0,67.0,29.88,WSW,246,0.0,3.0,93,0.00,,,0.11,weatherlink.com 1.10,2013-09-08 02:44:00,
2013-09-07 22:59:00,69.1,67.0,29.89,NW,308,0.0,2.0,92,0.00,,,0.11,weatherlink.com 1.10,2013-09-08 02:59:00,
2013-09-07 23:14:00,69.0,67.0,29.89,West,263,0.0,2.0,92,0.00,,,0.11,weatherlink.com 1.10,2013-09-08 03:14:00,
2013-09-07 23:29:00,69.0,67.0,29.89,SW,231,0.0,3.0,92,0.00,,,0.11,weatherlink.com 1.10,2013-09-08 03:29:00,
2013-09-07 23:44:00,69.0,67.0,29.89,WNW,284,2.0,3.0,92,0.00,,,0.11,weatherlink.com 1.10,2013-09-08 03:44:00,
2013-09-07 23:59:00,69.2,67.0,29.89,WNW,290,0.0,4.0,92,0.00,,,0.00,weatherlink.com 1.10,2013-09-08 03:59:00,